<?xml version="1.0" encoding="UTF-8" standalone="no" ?><gpx xmlns="http://www.topografix.com/GPX/1/1" xmlns:gpxx="http://www.garmin.com/xmlschemas/GpxExtensions/v3" xmlns:wptx1="http://www.garmin.com/xmlschemas/WaypointExtension/v1" xmlns:gpxtpx="http://www.garmin.com/xmlschemas/TrackPointExtension/v1" creator="GuideVTT.com" version="1.1" xmlns:xsi="http://www.w3.org/2001/XMLSchema-instance" xsi:schemaLocation="http://www.topografix.com/GPX/1/1 http://www.topografix.com/GPX/1/1/gpx.xsd http://www.garmin.com/xmlschemas/GpxExtensions/v3 http://www8.garmin.com/xmlschemas/GpxExtensionsv3.xsd http://www.garmin.com/xmlschemas/WaypointExtension/v1 http://www8.garmin.com/xmlschemas/WaypointExtensionv1.xsd http://www.garmin.com/xmlschemas/TrackPointExtension/v1 http://www.garmin.com/xmlschemas/TrackPointExtensionv1.xsd">
<metadata><link href="http://www.garmin.com"><text>Garmin International</text></link><time>2013-06-22T15:13:50Z</time></metadata>
<trk><name>saillon-fully-saillon.gpx</name><extensions><gpxx:TrackExtension><gpxx:DisplayColor>Cyan</gpxx:DisplayColor></gpxx:TrackExtension></extensions><trkseg>
<trkpt lat="46.16934640" lon="7.17898399"><ele></ele><time>2014-5-10T9:18:34Z</time></trkpt>
<trkpt lat="46.16908190" lon="7.17782051"><ele></ele><time>2014-5-10T9:18:37Z</time></trkpt>
<trkpt lat="46.16846348" lon="7.17799477"><ele></ele><time>2014-5-10T9:18:40Z</time></trkpt>
<trkpt lat="46.16843817" lon="7.17734401"><ele></ele><time>2014-5-10T9:18:43Z</time></trkpt>
<trkpt lat="46.16810496" lon="7.17734562"><ele></ele><time>2014-5-10T9:18:46Z</time></trkpt>
<trkpt lat="46.16730618" lon="7.17166295"><ele></ele><time>2014-5-10T9:18:49Z</time></trkpt>
<trkpt lat="46.16709092" lon="7.17121869"><ele></ele><time>2014-5-10T9:18:52Z</time></trkpt>
<trkpt lat="46.16584953" lon="7.16964906"><ele></ele><time>2014-5-10T9:18:55Z</time></trkpt>
<trkpt lat="46.16339164" lon="7.16698946"><ele></ele><time>2014-5-10T9:18:58Z</time></trkpt>
<trkpt lat="46.16222243" lon="7.16576221"><ele></ele><time>2014-5-10T9:19:1Z</time></trkpt>
<trkpt lat="46.16172120" lon="7.16518243"><ele></ele><time>2014-5-10T9:19:4Z</time></trkpt>
<trkpt lat="46.16092916" lon="7.16248051"><ele></ele><time>2014-5-10T9:19:7Z</time></trkpt>
<trkpt lat="46.16014003" lon="7.16097745"><ele></ele><time>2014-5-10T9:19:10Z</time></trkpt>
<trkpt lat="46.15858722" lon="7.15865635"><ele></ele><time>2014-5-10T9:19:13Z</time></trkpt>
<trkpt lat="46.15700970" lon="7.15599302"><ele></ele><time>2014-5-10T9:19:16Z</time></trkpt>
<trkpt lat="46.15791119" lon="7.15482382"><ele></ele><time>2014-5-10T9:19:19Z</time></trkpt>
<trkpt lat="46.15760022" lon="7.15420894"><ele></ele><time>2014-5-10T9:19:22Z</time></trkpt>
<trkpt lat="46.15709580" lon="7.15239635"><ele></ele><time>2014-5-10T9:19:25Z</time></trkpt>
<trkpt lat="46.15647507" lon="7.15164614"><ele></ele><time>2014-5-10T9:19:28Z</time></trkpt>
<trkpt lat="46.15494999" lon="7.15093498"><ele></ele><time>2014-5-10T9:19:31Z</time></trkpt>
<trkpt lat="46.15544655" lon="7.14966515"><ele></ele><time>2014-5-10T9:19:34Z</time></trkpt>
<trkpt lat="46.15537427" lon="7.14932305"><ele></ele><time>2014-5-10T9:19:37Z</time></trkpt>
<trkpt lat="46.15503930" lon="7.14863987"><ele></ele><time>2014-5-10T9:19:40Z</time></trkpt>
<trkpt lat="46.15474828" lon="7.14655228"><ele></ele><time>2014-5-10T9:19:43Z</time></trkpt>
<trkpt lat="46.15464934" lon="7.14511439"><ele></ele><time>2014-5-10T9:19:46Z</time></trkpt>
<trkpt lat="46.15457579" lon="7.14429283"><ele></ele><time>2014-5-10T9:19:49Z</time></trkpt>
<trkpt lat="46.15412214" lon="7.14374733"><ele></ele><time>2014-5-10T9:19:52Z</time></trkpt>
<trkpt lat="46.15338216" lon="7.14292941"><ele></ele><time>2014-5-10T9:19:55Z</time></trkpt>
<trkpt lat="46.15261648" lon="7.14139247"><ele></ele><time>2014-5-10T9:19:58Z</time></trkpt>
<trkpt lat="46.15230399" lon="7.14022979"><ele></ele><time>2014-5-10T9:20:1Z</time></trkpt>
<trkpt lat="46.15144069" lon="7.13780306"><ele></ele><time>2014-5-10T9:20:4Z</time></trkpt>
<trkpt lat="46.15098554" lon="7.13670971"><ele></ele><time>2014-5-10T9:20:7Z</time></trkpt>
<trkpt lat="46.15007429" lon="7.13418062"><ele></ele><time>2014-5-10T9:20:10Z</time></trkpt>
<trkpt lat="46.14995017" lon="7.13229783"><ele></ele><time>2014-5-10T9:20:13Z</time></trkpt>
<trkpt lat="46.14982883" lon="7.13144239"><ele></ele><time>2014-5-10T9:20:16Z</time></trkpt>
<trkpt lat="46.14858839" lon="7.13042207"><ele></ele><time>2014-5-10T9:20:19Z</time></trkpt>
<trkpt lat="46.14801577" lon="7.12991166"><ele></ele><time>2014-5-10T9:20:22Z</time></trkpt>
<trkpt lat="46.14737250" lon="7.12967561"><ele></ele><time>2014-5-10T9:20:25Z</time></trkpt>
<trkpt lat="46.14701427" lon="7.12923248"><ele></ele><time>2014-5-10T9:20:28Z</time></trkpt>
<trkpt lat="46.14677466" lon="7.12865171"><ele></ele><time>2014-5-10T9:20:31Z</time></trkpt>
<trkpt lat="46.14641472" lon="7.12759223"><ele></ele><time>2014-5-10T9:20:34Z</time></trkpt>
<trkpt lat="46.14593634" lon="7.12673890"><ele></ele><time>2014-5-10T9:20:37Z</time></trkpt>
<trkpt lat="46.14569614" lon="7.12595270"><ele></ele><time>2014-5-10T9:20:40Z</time></trkpt>
<trkpt lat="46.14574194" lon="7.12530183"><ele></ele><time>2014-5-10T9:20:43Z</time></trkpt>
<trkpt lat="46.14576392" lon="7.12465110"><ele></ele><time>2014-5-10T9:20:46Z</time></trkpt>
<trkpt lat="46.14590596" lon="7.12437633"><ele></ele><time>2014-5-10T9:20:49Z</time></trkpt>
<trkpt lat="46.14532957" lon="7.12253058"><ele></ele><time>2014-5-10T9:20:52Z</time></trkpt>
<trkpt lat="46.14448804" lon="7.11952220"><ele></ele><time>2014-5-10T9:20:55Z</time></trkpt>
<trkpt lat="46.14436845" lon="7.11931745"><ele></ele><time>2014-5-10T9:20:58Z</time></trkpt>
<trkpt lat="46.14460529" lon="7.11890516"><ele></ele><time>2014-5-10T9:21:1Z</time></trkpt>
<trkpt lat="46.14424760" lon="7.11866757"><ele></ele><time>2014-5-10T9:21:4Z</time></trkpt>
<trkpt lat="46.14379481" lon="7.11846479"><ele></ele><time>2014-5-10T9:21:7Z</time></trkpt>
<trkpt lat="46.14353163" lon="7.11798696"><ele></ele><time>2014-5-10T9:21:10Z</time></trkpt>
<trkpt lat="46.14314956" lon="7.11754408"><ele></ele><time>2014-5-10T9:21:13Z</time></trkpt>
<trkpt lat="46.14314887" lon="7.11730440"><ele></ele><time>2014-5-10T9:21:16Z</time></trkpt>
<trkpt lat="46.14329080" lon="7.11699539"><ele></ele><time>2014-5-10T9:21:19Z</time></trkpt>
<trkpt lat="46.14319481" lon="7.11672203"><ele></ele><time>2014-5-10T9:21:22Z</time></trkpt>
<trkpt lat="46.14331322" lon="7.11651589"><ele></ele><time>2014-5-10T9:21:25Z</time></trkpt>
<trkpt lat="46.14293232" lon="7.11648390"><ele></ele><time>2014-5-10T9:21:28Z</time></trkpt>
<trkpt lat="46.14266973" lon="7.11621154"><ele></ele><time>2014-5-10T9:21:31Z</time></trkpt>
<trkpt lat="46.14271723" lon="7.11617701"><ele></ele><time>2014-5-10T9:21:34Z</time></trkpt>
<trkpt lat="46.14288315" lon="7.11593634"><ele></ele><time>2014-5-10T9:21:37Z</time></trkpt>
<trkpt lat="46.14312007" lon="7.11555829"><ele></ele><time>2014-5-10T9:21:40Z</time></trkpt>
<trkpt lat="46.14326238" lon="7.11538624"><ele></ele><time>2014-5-10T9:21:43Z</time></trkpt>
<trkpt lat="46.14409481" lon="7.11517584"><ele></ele><time>2014-5-10T9:21:46Z</time></trkpt>
<trkpt lat="46.14452322" lon="7.11517329"><ele></ele><time>2014-5-10T9:21:49Z</time></trkpt>
<trkpt lat="46.14437894" lon="7.11466052"><ele></ele><time>2014-5-10T9:21:52Z</time></trkpt>
<trkpt lat="46.14402194" lon="7.11466265"><ele></ele><time>2014-5-10T9:21:55Z</time></trkpt>
<trkpt lat="46.14380615" lon="7.11411607"><ele></ele><time>2014-5-10T9:21:58Z</time></trkpt>
<trkpt lat="46.14363876" lon="7.11384314"><ele></ele><time>2014-5-10T9:22:1Z</time></trkpt>
<trkpt lat="46.14328165" lon="7.11381104"><ele></ele><time>2014-5-10T9:22:4Z</time></trkpt>
<trkpt lat="46.14306794" lon="7.11398352"><ele></ele><time>2014-5-10T9:22:7Z</time></trkpt>
<trkpt lat="46.14192205" lon="7.11279196"><ele></ele><time>2014-5-10T9:22:10Z</time></trkpt>
<trkpt lat="46.14177736" lon="7.11214226"><ele></ele><time>2014-5-10T9:22:13Z</time></trkpt>
<trkpt lat="46.14201168" lon="7.11087397"><ele></ele><time>2014-5-10T9:22:16Z</time></trkpt>
<trkpt lat="46.14188938" lon="7.10974478"><ele></ele><time>2014-5-10T9:22:19Z</time></trkpt>
<trkpt lat="46.14329961" lon="7.11179071"><ele></ele><time>2014-5-10T9:22:22Z</time></trkpt>
<trkpt lat="46.14372891" lon="7.11209630"><ele></ele><time>2014-5-10T9:22:25Z</time></trkpt>
<trkpt lat="46.14380051" lon="7.11216435"><ele></ele><time>2014-5-10T9:22:28Z</time></trkpt>
<trkpt lat="46.14365612" lon="7.11161736"><ele></ele><time>2014-5-10T9:22:31Z</time></trkpt>
<trkpt lat="46.14365333" lon="7.11065862"><ele></ele><time>2014-5-10T9:22:34Z</time></trkpt>
<trkpt lat="46.14350693" lon="7.10942682"><ele></ele><time>2014-5-10T9:22:37Z</time></trkpt>
<trkpt lat="46.14388844" lon="7.10966420"><ele></ele><time>2014-5-10T9:22:40Z</time></trkpt>
<trkpt lat="46.14410384" lon="7.11007380"><ele></ele><time>2014-5-10T9:22:43Z</time></trkpt>
<trkpt lat="46.14439035" lon="7.11038024"><ele></ele><time>2014-5-10T9:22:46Z</time></trkpt>
<trkpt lat="46.14434075" lon="7.10969571"><ele></ele><time>2014-5-10T9:22:49Z</time></trkpt>
<trkpt lat="46.14419644" lon="7.10918296"><ele></ele><time>2014-5-10T9:22:52Z</time></trkpt>
<trkpt lat="46.14405234" lon="7.10873869"><ele></ele><time>2014-5-10T9:22:55Z</time></trkpt>
<trkpt lat="46.14371783" lon="7.10829559"><ele></ele><time>2014-5-10T9:22:58Z</time></trkpt>
<trkpt lat="46.14340691" lon="7.10778386"><ele></ele><time>2014-5-10T9:23:1Z</time></trkpt>
<trkpt lat="46.14323890" lon="7.10730551"><ele></ele><time>2014-5-10T9:23:4Z</time></trkpt>
<trkpt lat="46.14285789" lon="7.10723935"><ele></ele><time>2014-5-10T9:23:7Z</time></trkpt>
<trkpt lat="46.14257218" lon="7.10720685"><ele></ele><time>2014-5-10T9:23:10Z</time></trkpt>
<trkpt lat="46.14211926" lon="7.10696993"><ele></ele><time>2014-5-10T9:23:13Z</time></trkpt>
<trkpt lat="46.14197555" lon="7.10666265"><ele></ele><time>2014-5-10T9:23:16Z</time></trkpt>
<trkpt lat="46.14180774" lon="7.10625279"><ele></ele><time>2014-5-10T9:23:19Z</time></trkpt>
<trkpt lat="46.14147311" lon="7.10577548"><ele></ele><time>2014-5-10T9:23:22Z</time></trkpt>
<trkpt lat="46.14125779" lon="7.10540016"><ele></ele><time>2014-5-10T9:23:25Z</time></trkpt>
<trkpt lat="46.14104247" lon="7.10502484"><ele></ele><time>2014-5-10T9:23:28Z</time></trkpt>
<trkpt lat="46.14056646" lon="7.10502776"><ele></ele><time>2014-5-10T9:23:31Z</time></trkpt>
<trkpt lat="46.14032611" lon="7.10424174"><ele></ele><time>2014-5-10T9:23:34Z</time></trkpt>
<trkpt lat="46.14011089" lon="7.10390067"><ele></ele><time>2014-5-10T9:23:37Z</time></trkpt>
<trkpt lat="46.13991845" lon="7.10321708"><ele></ele><time>2014-5-10T9:23:40Z</time></trkpt>
<trkpt lat="46.13991763" lon="7.10294317"><ele></ele><time>2014-5-10T9:23:43Z</time></trkpt>
<trkpt lat="46.13991630" lon="7.10249807"><ele></ele><time>2014-5-10T9:23:46Z</time></trkpt>
<trkpt lat="46.13991374" lon="7.10164211"><ele></ele><time>2014-5-10T9:23:49Z</time></trkpt>
<trkpt lat="46.13976929" lon="7.10109519"><ele></ele><time>2014-5-10T9:23:52Z</time></trkpt>
<trkpt lat="46.13948297" lon="7.10085730"><ele></ele><time>2014-5-10T9:23:55Z</time></trkpt>
<trkpt lat="46.13900655" lon="7.10072330"><ele></ele><time>2014-5-10T9:23:58Z</time></trkpt>
<trkpt lat="46.13867252" lon="7.10045148"><ele></ele><time>2014-5-10T9:24:1Z</time></trkpt>
<trkpt lat="46.13855197" lon="7.09993865"><ele></ele><time>2014-5-10T9:24:4Z</time></trkpt>
<trkpt lat="46.13843214" lon="7.09966550"><ele></ele><time>2014-5-10T9:24:7Z</time></trkpt>
<trkpt lat="46.13802619" lon="7.09922294"><ele></ele><time>2014-5-10T9:24:10Z</time></trkpt>
<trkpt lat="46.13811974" lon="7.09867455"><ele></ele><time>2014-5-10T9:24:13Z</time></trkpt>
<trkpt lat="46.13811849" lon="7.09826370"><ele></ele><time>2014-5-10T9:24:16Z</time></trkpt>
<trkpt lat="46.13783081" lon="7.09758075"><ele></ele><time>2014-5-10T9:24:19Z</time></trkpt>
<trkpt lat="46.13775785" lon="7.09706764"><ele></ele><time>2014-5-10T9:24:22Z</time></trkpt>
<trkpt lat="46.13766130" lon="7.09662316"><ele></ele><time>2014-5-10T9:24:25Z</time></trkpt>
<trkpt lat="46.13742392" lon="7.09683008"><ele></ele><time>2014-5-10T9:24:28Z</time></trkpt>
<trkpt lat="46.13747318" lon="7.09737756"><ele></ele><time>2014-5-10T9:24:31Z</time></trkpt>
<trkpt lat="46.13740282" lon="7.09772038"><ele></ele><time>2014-5-10T9:24:34Z</time></trkpt>
<trkpt lat="46.13728340" lon="7.09758418"><ele></ele><time>2014-5-10T9:24:37Z</time></trkpt>
<trkpt lat="46.13704404" lon="7.09714060"><ele></ele><time>2014-5-10T9:24:40Z</time></trkpt>
<trkpt lat="46.13701941" lon="7.09686685"><ele></ele><time>2014-5-10T9:24:43Z</time></trkpt>
<trkpt lat="46.13699467" lon="7.09655888"><ele></ele><time>2014-5-10T9:24:46Z</time></trkpt>
<trkpt lat="46.13689905" lon="7.09642253"><ele></ele><time>2014-5-10T9:24:49Z</time></trkpt>
<trkpt lat="46.13677911" lon="7.09611515"><ele></ele><time>2014-5-10T9:24:52Z</time></trkpt>
<trkpt lat="46.13656345" lon="7.09563720"><ele></ele><time>2014-5-10T9:24:55Z</time></trkpt>
<trkpt lat="46.13642023" lon="7.09550115"><ele></ele><time>2014-5-10T9:24:58Z</time></trkpt>
<trkpt lat="46.13615842" lon="7.09550281"><ele></ele><time>2014-5-10T9:25:1Z</time></trkpt>
<trkpt lat="46.13568148" lon="7.09519769"><ele></ele><time>2014-5-10T9:25:4Z</time></trkpt>
<trkpt lat="46.13556279" lon="7.09530115"><ele></ele><time>2014-5-10T9:25:7Z</time></trkpt>
<trkpt lat="46.13487309" lon="7.09547668"><ele></ele><time>2014-5-10T9:25:10Z</time></trkpt>
<trkpt lat="46.13449166" lon="7.09527368"><ele></ele><time>2014-5-10T9:25:13Z</time></trkpt>
<trkpt lat="46.13430125" lon="7.09527488"><ele></ele><time>2014-5-10T9:25:16Z</time></trkpt>
<trkpt lat="46.13396574" lon="7.09452382"><ele></ele><time>2014-5-10T9:25:19Z</time></trkpt>
<trkpt lat="46.13377313" lon="7.09380610"><ele></ele><time>2014-5-10T9:25:22Z</time></trkpt>
<trkpt lat="46.13391426" lon="7.09325744"><ele></ele><time>2014-5-10T9:25:25Z</time></trkpt>
<trkpt lat="46.13379378" lon="7.09277892"><ele></ele><time>2014-5-10T9:25:28Z</time></trkpt>
<trkpt lat="46.13355451" lon="7.09236962"><ele></ele><time>2014-5-10T9:25:31Z</time></trkpt>
<trkpt lat="46.13336253" lon="7.09185732"><ele></ele><time>2014-5-10T9:25:34Z</time></trkpt>
<trkpt lat="46.13321856" lon="7.09148166"><ele></ele><time>2014-5-10T9:25:37Z</time></trkpt>
<trkpt lat="46.13309850" lon="7.09114008"><ele></ele><time>2014-5-10T9:25:40Z</time></trkpt>
<trkpt lat="46.13293105" lon="7.09086727"><ele></ele><time>2014-5-10T9:25:43Z</time></trkpt>
<trkpt lat="46.13254929" lon="7.09056160"><ele></ele><time>2014-5-10T9:25:46Z</time></trkpt>
<trkpt lat="46.13223914" lon="7.09032395"><ele></ele><time>2014-5-10T9:25:49Z</time></trkpt>
<trkpt lat="46.13200029" lon="7.09005161"><ele></ele><time>2014-5-10T9:25:52Z</time></trkpt>
<trkpt lat="46.13178523" lon="7.08977911"><ele></ele><time>2014-5-10T9:25:55Z</time></trkpt>
<trkpt lat="46.13169003" lon="7.08977972"><ele></ele><time>2014-5-10T9:25:58Z</time></trkpt>
<trkpt lat="46.13169046" lon="7.08991666"><ele></ele><time>2014-5-10T9:26:1Z</time></trkpt>
<trkpt lat="46.13171468" lon="7.09005344"><ele></ele><time>2014-5-10T9:26:4Z</time></trkpt>
<trkpt lat="46.13190583" lon="7.09029185"><ele></ele><time>2014-5-10T9:26:7Z</time></trkpt>
<trkpt lat="46.13207349" lon="7.09063311"><ele></ele><time>2014-5-10T9:26:10Z</time></trkpt>
<trkpt lat="46.13240828" lon="7.09114448"><ele></ele><time>2014-5-10T9:26:13Z</time></trkpt>
<trkpt lat="46.13217028" lon="7.09114600"><ele></ele><time>2014-5-10T9:26:16Z</time></trkpt>
<trkpt lat="46.13171637" lon="7.09060116"><ele></ele><time>2014-5-10T9:26:19Z</time></trkpt>
<trkpt lat="46.13171637" lon="7.09060116"><ele></ele><time>2014-5-10T9:26:22Z</time></trkpt>
<trkpt lat="46.13200430" lon="7.09135247"><ele></ele><time>2014-5-10T9:26:25Z</time></trkpt>
<trkpt lat="46.13205212" lon="7.09142063"><ele></ele><time>2014-5-10T9:26:28Z</time></trkpt>
<trkpt lat="46.13169363" lon="7.09094365"><ele></ele><time>2014-5-10T9:26:31Z</time></trkpt>
<trkpt lat="46.13143108" lon="7.09070569"><ele></ele><time>2014-5-10T9:26:34Z</time></trkpt>
<trkpt lat="46.13140728" lon="7.09070584"><ele></ele><time>2014-5-10T9:26:37Z</time></trkpt>
<trkpt lat="46.13150343" lon="7.09101333"><ele></ele><time>2014-5-10T9:26:40Z</time></trkpt>
<trkpt lat="46.13162318" lon="7.09125220"><ele></ele><time>2014-5-10T9:26:43Z</time></trkpt>
<trkpt lat="46.13171891" lon="7.09142276"><ele></ele><time>2014-5-10T9:26:46Z</time></trkpt>
<trkpt lat="46.13176693" lon="7.09155938"><ele></ele><time>2014-5-10T9:26:49Z</time></trkpt>
<trkpt lat="46.13176735" lon="7.09169632"><ele></ele><time>2014-5-10T9:26:52Z</time></trkpt>
<trkpt lat="46.13176746" lon="7.09173055"><ele></ele><time>2014-5-10T9:26:55Z</time></trkpt>
<trkpt lat="46.13176756" lon="7.09176478"><ele></ele><time>2014-5-10T9:26:58Z</time></trkpt>
<trkpt lat="46.13176767" lon="7.09179902"><ele></ele><time>2014-5-10T9:27:1Z</time></trkpt>
<trkpt lat="46.13162486" lon="7.09179993"><ele></ele><time>2014-5-10T9:27:4Z</time></trkpt>
<trkpt lat="46.13143351" lon="7.09149304"><ele></ele><time>2014-5-10T9:27:7Z</time></trkpt>
<trkpt lat="46.13140971" lon="7.09149320"><ele></ele><time>2014-5-10T9:27:10Z</time></trkpt>
<trkpt lat="46.13131387" lon="7.09128841"><ele></ele><time>2014-5-10T9:27:13Z</time></trkpt>
<trkpt lat="46.13124215" lon="7.09118616"><ele></ele><time>2014-5-10T9:27:16Z</time></trkpt>
<trkpt lat="46.13121835" lon="7.09118632"><ele></ele><time>2014-5-10T9:27:19Z</time></trkpt>
<trkpt lat="46.13121835" lon="7.09118632"><ele></ele><time>2014-5-10T9:27:22Z</time></trkpt>
<trkpt lat="46.13121857" lon="7.09125478"><ele></ele><time>2014-5-10T9:27:25Z</time></trkpt>
<trkpt lat="46.13121952" lon="7.09156288"><ele></ele><time>2014-5-10T9:27:28Z</time></trkpt>
<trkpt lat="46.13124374" lon="7.09169966"><ele></ele><time>2014-5-10T9:27:31Z</time></trkpt>
<trkpt lat="46.13126775" lon="7.09176797"><ele></ele><time>2014-5-10T9:27:34Z</time></trkpt>
<trkpt lat="46.13129187" lon="7.09187052"><ele></ele><time>2014-5-10T9:27:37Z</time></trkpt>
<trkpt lat="46.13131598" lon="7.09197306"><ele></ele><time>2014-5-10T9:27:40Z</time></trkpt>
<trkpt lat="46.13131619" lon="7.09204153"><ele></ele><time>2014-5-10T9:27:43Z</time></trkpt>
<trkpt lat="46.13129260" lon="7.09211015"><ele></ele><time>2014-5-10T9:27:46Z</time></trkpt>
<trkpt lat="46.13119751" lon="7.09214499"><ele></ele><time>2014-5-10T9:27:49Z</time></trkpt>
<trkpt lat="46.13117371" lon="7.09214514"><ele></ele><time>2014-5-10T9:27:52Z</time></trkpt>
<trkpt lat="46.13091116" lon="7.09190718"><ele></ele><time>2014-5-10T9:27:55Z</time></trkpt>
<trkpt lat="46.13069611" lon="7.09163468"><ele></ele><time>2014-5-10T9:27:58Z</time></trkpt>
<trkpt lat="46.13036259" lon="7.09153411"><ele></ele><time>2014-5-10T9:28:1Z</time></trkpt>
<trkpt lat="46.13019598" lon="7.09153518"><ele></ele><time>2014-5-10T9:28:4Z</time></trkpt>
<trkpt lat="46.12986183" lon="7.09122922"><ele></ele><time>2014-5-10T9:28:7Z</time></trkpt>
<trkpt lat="46.12974303" lon="7.09129844"><ele></ele><time>2014-5-10T9:28:10Z</time></trkpt>
<trkpt lat="46.12931357" lon="7.09095886"><ele></ele><time>2014-5-10T9:28:13Z</time></trkpt>
<trkpt lat="46.12885998" lon="7.09051674"><ele></ele><time>2014-5-10T9:28:16Z</time></trkpt>
<trkpt lat="46.12857437" lon="7.09051857"><ele></ele><time>2014-5-10T9:28:19Z</time></trkpt>
<trkpt lat="46.12835964" lon="7.09034879"><ele></ele><time>2014-5-10T9:28:22Z</time></trkpt>
<trkpt lat="46.12752141" lon="7.08867683"><ele></ele><time>2014-5-10T9:28:25Z</time></trkpt>
<trkpt lat="46.12627866" lon="7.08704176"><ele></ele><time>2014-5-10T9:28:28Z</time></trkpt>
<trkpt lat="46.12565760" lon="7.08632695"><ele></ele><time>2014-5-10T9:28:31Z</time></trkpt>
<trkpt lat="46.12537189" lon="7.08629457"><ele></ele><time>2014-5-10T9:28:34Z</time></trkpt>
<trkpt lat="46.12525310" lon="7.08636380"><ele></ele><time>2014-5-10T9:28:37Z</time></trkpt>
<trkpt lat="46.12482222" lon="7.08557931"><ele></ele><time>2014-5-10T9:28:40Z</time></trkpt>
<trkpt lat="46.12458411" lon="7.08554663"><ele></ele><time>2014-5-10T9:28:43Z</time></trkpt>
<trkpt lat="46.12437001" lon="7.08558225"><ele></ele><time>2014-5-10T9:28:46Z</time></trkpt>
<trkpt lat="46.12446747" lon="7.08630043"><ele></ele><time>2014-5-10T9:28:49Z</time></trkpt>
<trkpt lat="46.12468339" lon="7.08684670"><ele></ele><time>2014-5-10T9:28:52Z</time></trkpt>
<trkpt lat="46.12712014" lon="7.09751099"><ele></ele><time>2014-5-10T9:28:55Z</time></trkpt>
<trkpt lat="46.12894341" lon="7.10229204"><ele></ele><time>2014-5-10T9:28:58Z</time></trkpt>
<trkpt lat="46.13405334" lon="7.11605724"><ele></ele><time>2014-5-10T9:29:1Z</time></trkpt>
<trkpt lat="46.13571039" lon="7.12125132"><ele></ele><time>2014-5-10T9:29:4Z</time></trkpt>
<trkpt lat="46.13741859" lon="7.12781492"><ele></ele><time>2014-5-10T9:29:7Z</time></trkpt>
<trkpt lat="46.13849734" lon="7.13061627"><ele></ele><time>2014-5-10T9:29:10Z</time></trkpt>
<trkpt lat="46.14303772" lon="7.13733598"><ele></ele><time>2014-5-10T9:29:13Z</time></trkpt>
<trkpt lat="46.14571721" lon="7.14252598"><ele></ele><time>2014-5-10T9:29:16Z</time></trkpt>
<trkpt lat="46.14713041" lon="7.14594262"><ele></ele><time>2014-5-10T9:29:19Z</time></trkpt>
<trkpt lat="46.15471838" lon="7.16299157"><ele></ele><time>2014-5-10T9:29:22Z</time></trkpt>
<trkpt lat="46.15644261" lon="7.16733247"><ele></ele><time>2014-5-10T9:29:25Z</time></trkpt>
<trkpt lat="46.15783638" lon="7.17290828"><ele></ele><time>2014-5-10T9:29:28Z</time></trkpt>
<trkpt lat="46.15907200" lon="7.18228697"><ele></ele><time>2014-5-10T9:29:31Z</time></trkpt>
<trkpt lat="46.16063529" lon="7.18950673"><ele></ele><time>2014-5-10T9:29:34Z</time></trkpt>
<trkpt lat="46.16547873" lon="7.18417499"><ele></ele><time>2014-5-10T9:29:37Z</time></trkpt>
<trkpt lat="46.16638168" lon="7.18351990"><ele></ele><time>2014-5-10T9:29:40Z</time></trkpt>
<trkpt lat="46.16895098" lon="7.18299396"><ele></ele><time>2014-5-10T9:29:43Z</time></trkpt>
<trkpt lat="46.16937931" lon="7.18295769"><ele></ele><time>2014-5-10T9:29:46Z</time></trkpt>
<trkpt lat="46.16937869" lon="7.18268363"><ele></ele><time>2014-5-10T9:29:49Z</time></trkpt>
<trkpt lat="46.16897275" lon="7.18210318"><ele></ele><time>2014-5-10T9:29:52Z</time></trkpt>
<trkpt lat="46.16887590" lon="7.18138424"><ele></ele><time>2014-5-10T9:29:55Z</time></trkpt>
<trkpt lat="46.16946825" lon="7.18021668"><ele></ele><time>2014-5-10T9:29:58Z</time></trkpt>
<trkpt lat="46.16937013" lon="7.17894962"><ele></ele><time>2014-5-10T9:30:1Z</time></trkpt>
</trkseg></trk></gpx>